This is the latest recevied weather packets stored in our database for station/object EA5CBT-13. If no packets are shown the sender has not sent any weather packets the latest 10 day(s).
| Time | Temp. | Humidity | Pressure | Rain* | Wind** | Luminosity | Snow |
|---|---|---|---|---|---|---|---|
| 1778021173 | 16.67° C | 78% | 1008.4 hPa | 0 mm | - | - | - |
| 1778019958 | 17.22° C | 79% | 1008.3 hPa | 0 mm | - | - | - |
| 1778019371 | 17.22° C | 79% | 1008.4 hPa | 0 mm | - | - | - |
| 1778016372 | 17.78° C | 73% | 1008.8 hPa | 0 mm | - | - | - |
| 1778015763 | 17.78° C | 73% | 1008.8 hPa | 0 mm | - | - | - |
| 1778009746 | 18.33° C | 66% | 1008.1 hPa | 0 mm | - | - | - |
| 1778008530 | 18.89° C | 61% | 1007.9 hPa | 0 mm | - | - | - |
| 1778004334 | 21.67° C | 45% | 1007.2 hPa | 0 mm | - | - | - |
| 1778000749 | 23.89° C | 31% | 1007.1 hPa | 0 mm | - | - | - |
| 1778000140 | 23.89° C | 28% | 1007.1 hPa | 0 mm | - | - | - |
| 1777995338 | 25.56° C | 32% | 1007.3 hPa | 0 mm | - | - | - |
| 1777993575 | 26.11° C | 25% | 1007.3 hPa | 0 mm | - | - | - |
| 1777991753 | 26.11° C | 27% | 1007.5 hPa | 0 mm | - | - | - |
| 1777989341 | 25.56° C | 29% | 1007.9 hPa | 0 mm | - | - | - |
| 1777986383 | 26.11° C | 30% | 1008.5 hPa | 0 mm | - | - | - |
| 1777985736 | 26.11° C | 28% | 1008.5 hPa | 0 mm | - | - | - |
| 1777982756 | 25.56° C | 31% | 1008.6 hPa | 0 mm | - | - | - |
| 1777976740 | 25.56° C | 28% | 1009.4 hPa | 0 mm | - | - | - |
| 1777968962 | 27.78° C | 26% | 1009.6 hPa | 0 mm | - | - | - |
| 1777964768 | 21.11° C | 49% | 1009.5 hPa | 0 mm | - | - | - |
| 1777960574 | 15° C | 65% | 1009.1 hPa | 0 mm | - | - | - |
| 1777958752 | 15° C | 70% | 1008.8 hPa | 0 mm | - | - | - |
| 1777958145 | 15° C | 71% | 1008.8 hPa | 0 mm | - | - | - |
| 1777957537 | 14.44° C | 72% | 1008.7 hPa | 0 mm | - | - | - |
| 1777955208 | 14.44° C | 75% | 1008.6 hPa | 0 mm | - | - | - |
* Rain latest hour (hover to see other rain measurements)
** Current wind speed in m/s (hover to see current wind gust speed)